Aeroporto :
LOGIN :

Iscrizione | Disclaimer

   EN    FR    IT 

 










Sommario :    VFR   VFR Marginale   IFR   IFR Intensivo   IFR Molto Intensivo
Visibilità : 
Base nubi : 
>= 8 km
>= 3000ft
5 / 8 km
1000 / 3000 ft
1500m / 5 km
500 / 1000 ft
800 / 1500m
200 / 500 ft
< 800m
< 200 ft
Simboli :   Temporali  Nebbia  Neve Forte  Precipitazioni Forti  Vento > 20 kt
SIGMETs :   Varie  Temporali  Ghiacco  Turbolenza  Onda orograficha  Ceneri Vulcaniche






- Altitudine del aeroporto : 219 ft
- Codice IATA : DNR


LFRD - Dinard

ULTIMO METAR :
  • 011530Z AUTO 28009KT 9999 SCT032 BKN038 OVC047 09/05 Q1031 NOSIG

METARs OBSOLETI :
  • 011500Z AUTO 29006KT 9999 BKN037 OVC046 10/05 Q1031 NOSIG
  • 011430Z AUTO 29009KT 9999 BKN034 OVC044 10/05 Q1031 NOSIG
  • 011400Z AUTO 29007KT 9999 OVC040 10/04 Q1031 NOSIG
  • 011330Z AUTO 29011KT 250V310 9999 OVC039 10/04 Q1031 NOSIG
  • 011300Z AUTO 27011KT 240V300 9999 OVC044 10/05 Q1031 NOSIG
  • 011230Z AUTO 28010KT 9999 OVC042 10/04 Q1032 NOSIG

TAF TAF LFRD
Valido dal 01 a 12 ore il 02 a 12 ore UTC


011100Z 0112/0212 27010KT 9999 OVC040
PROB30
TEMPO 0122/0206 -SHRA BKN014
ATIS : +33 2 99 16 81 50



MetMap, La meteo Aeronautica in un colpo d'occhio ! - Copyright ORBIFLY Dicembre 2007 - Disclaimer

ORBIFLY MET'MAP TEAM :

Programmazione e sviluppo : Alexandra Zaïnal
Concezione : Baudouin d'Aumeries
Supporto tecnico e logistico : Manuel Goepfert
Aiuto : Marc-Olivier Méhu
Aiuto per la traduzione : Arnaldo La Scala




FONTI E CREDITI :

   NOAA